createdAt,value
2016-11-24T00:00:06.400Z,864.1
2016-11-24T00:01:06.398Z,863.25
2016-11-24T00:02:06.401Z,862.59
2016-11-24T00:03:06.419Z,861.01
2016-11-24T00:04:06.663Z,860.79
2016-11-24T00:05:06.391Z,860.01
2016-11-24T00:06:06.475Z,859.71
2016-11-24T00:07:06.752Z,859.32
2016-11-24T00:08:06.407Z,859.31
2016-11-24T00:09:06.406Z,858.73
2016-11-24T00:10:06.459Z,858.37
2016-11-24T00:11:06.423Z,858.27
2016-11-24T00:12:06.429Z,857.83
2016-11-24T00:13:06.437Z,856.7
2016-11-24T00:14:06.430Z,856.46
2016-11-24T00:15:06.407Z,855.84
2016-11-24T00:16:06.442Z,855.9
2016-11-24T00:17:06.414Z,856.01
2016-11-24T00:18:06.474Z,855.6
2016-11-24T00:19:06.431Z,855.72
2016-11-24T00:20:06.423Z,855.41
2016-11-24T00:21:06.432Z,855.5
2016-11-24T00:22:06.414Z,856.11
2016-11-24T00:23:06.423Z,856.08
2016-11-24T00:24:06.411Z,855.79
2016-11-24T00:25:06.411Z,854.83
2016-11-24T00:26:06.438Z,854.99
2016-11-24T00:27:06.417Z,854.79
2016-11-24T00:28:06.490Z,853.96
2016-11-24T00:29:06.427Z,853.96
2016-11-24T00:30:06.415Z,853.65
2016-11-24T00:31:06.436Z,853.2
2016-11-24T00:32:06.891Z,853.04
2016-11-24T00:33:06.439Z,852.92
2016-11-24T00:34:06.440Z,853.08
2016-11-24T00:35:06.794Z,853.35
2016-11-24T00:36:06.445Z,853.35
2016-11-24T00:37:06.449Z,854.07
2016-11-24T00:38:06.419Z,854.37
2016-11-24T00:39:06.425Z,854.18
2016-11-24T00:40:06.436Z,854.77
2016-11-24T00:41:06.614Z,855.22
2016-11-24T00:42:06.439Z,855.96
2016-11-24T00:43:06.419Z,855.28
2016-11-24T00:44:06.436Z,856.15
2016-11-24T00:45:06.419Z,856.02
2016-11-24T00:46:06.445Z,856.15
2016-11-24T00:47:06.441Z,856.59
2016-11-24T00:48:06.474Z,857.3
2016-11-24T00:49:06.447Z,858.04
2016-11-24T00:50:06.436Z,858.12
2016-11-24T00:51:06.451Z,858.3
2016-11-24T00:52:06.441Z,858.72
2016-11-24T00:53:06.438Z,858.81
2016-11-24T00:54:06.444Z,858.72
2016-11-24T00:55:06.444Z,858.57
2016-11-24T00:56:06.457Z,858.44
2016-11-24T00:57:06.455Z,857.47
2016-11-24T00:58:06.446Z,856.88
2016-11-24T00:59:06.451Z,856.93
2016-11-24T01:00:06.447Z,856.06
2016-11-24T01:01:07.353Z,855.84
2016-11-24T01:02:06.499Z,855.95
2016-11-24T01:03:06.452Z,855.5
2016-11-24T01:04:06.446Z,854.97
2016-11-24T01:05:06.447Z,855.47
2016-11-24T01:06:06.473Z,855.26
2016-11-24T01:07:06.442Z,855.16
2016-11-24T01:08:06.440Z,855.59
2016-11-24T01:09:06.461Z,855.78
2016-11-24T01:10:06.452Z,856.2
2016-11-24T01:11:06.490Z,855.97
2016-11-24T01:12:06.442Z,856.33
2016-11-24T01:13:06.455Z,856.34
2016-11-24T01:14:06.451Z,856.52
2016-11-24T01:15:06.455Z,856.18
2016-11-24T01:16:06.460Z,856.2
2016-11-24T01:17:06.474Z,856.62
2016-11-24T01:18:06.464Z,857.2
2016-11-24T01:19:06.469Z,857.34
2016-11-24T01:20:06.489Z,857.35
2016-11-24T01:21:06.528Z,858.12
2016-11-24T01:22:06.458Z,858.68
2016-11-24T01:23:06.484Z,857.97
2016-11-24T01:24:06.471Z,858.5
2016-11-24T01:25:06.478Z,858.51
2016-11-24T01:26:06.474Z,858.71
2016-11-24T01:27:06.458Z,858.72
2016-11-24T01:28:06.454Z,857.87
2016-11-24T01:29:06.468Z,858.12
2016-11-24T01:30:06.471Z,857.8
2016-11-24T01:31:06.466Z,858.43
2016-11-24T01:32:06.465Z,858.14
2016-11-24T01:33:06.479Z,857.84
2016-11-24T01:34:06.471Z,857.53
2016-11-24T01:35:06.804Z,857.51
2016-11-24T01:36:06.463Z,857.39
2016-11-24T01:37:06.469Z,857.55
2016-11-24T01:38:06.490Z,857.68
2016-11-24T01:39:06.482Z,858.25
2016-11-24T01:40:06.482Z,858.52
2016-11-24T01:41:06.498Z,859.1
2016-11-24T01:42:06.477Z,859.52
2016-11-24T01:43:06.487Z,860.08
2016-11-24T01:44:06.484Z,860.82
2016-11-24T01:45:06.474Z,861.19
2016-11-24T01:46:06.481Z,862.08
2016-11-24T01:47:06.492Z,862.92
2016-11-24T01:48:06.498Z,864.01
2016-11-24T01:49:06.479Z,864.5
2016-11-24T01:50:06.486Z,866.06
2016-11-24T01:51:06.490Z,866.76
2016-11-24T01:52:06.514Z,868.06
2016-11-24T01:53:06.501Z,869.03
2016-11-24T01:54:06.493Z,870
2016-11-24T01:55:06.494Z,871.16
2016-11-24T01:56:06.487Z,871.88
2016-11-24T01:57:06.487Z,872.96
2016-11-24T01:58:06.488Z,873.54
2016-11-24T01:59:06.493Z,874.22
2016-11-24T02:00:06.484Z,875.88
2016-11-24T02:01:06.502Z,876.67
2016-11-24T02:02:06.500Z,877.37
2016-11-24T02:03:06.492Z,878.2
2016-11-24T02:04:06.494Z,879.72
2016-11-24T02:05:06.507Z,879.83
2016-11-24T02:06:06.509Z,880.48
2016-11-24T02:07:06.500Z,880.99
2016-11-24T02:08:06.490Z,881.52
2016-11-24T02:09:06.513Z,882.79
2016-11-24T02:10:06.504Z,882.62
2016-11-24T02:11:06.495Z,883.26
2016-11-24T02:12:06.651Z,883.92
2016-11-24T02:13:06.511Z,884.48
2016-11-24T02:14:06.862Z,885.03
2016-11-24T02:15:06.486Z,886.01
2016-11-24T02:16:06.500Z,886.03
2016-11-24T02:17:06.537Z,886.86
2016-11-24T02:18:06.497Z,886.32
2016-11-24T02:19:06.504Z,886.97
2016-11-24T02:20:06.503Z,887.29
2016-11-24T02:21:06.501Z,887.46
2016-11-24T02:22:06.522Z,887.63
2016-11-24T02:23:06.500Z,888.21
2016-11-24T02:24:06.510Z,888.69
2016-11-24T02:25:06.508Z,888.71
2016-11-24T02:26:06.505Z,888.93
2016-11-24T02:27:06.523Z,889.88
2016-11-24T02:28:06.514Z,890.17
2016-11-24T02:29:06.542Z,890.69
2016-11-24T02:30:06.517Z,890.37
2016-11-24T02:31:06.526Z,890.41
2016-11-24T02:32:06.529Z,890.44
2016-11-24T02:33:06.523Z,891.08
2016-11-24T02:34:06.549Z,890.54
2016-11-24T02:35:06.520Z,890.55
2016-11-24T02:36:06.523Z,890.56
2016-11-24T02:37:06.543Z,890.74
2016-11-24T02:38:06.526Z,890.67
2016-11-24T02:39:06.543Z,891.08
2016-11-24T02:40:06.539Z,891.36
2016-11-24T02:41:06.527Z,890.52
2016-11-24T02:42:06.535Z,890.82
2016-11-24T02:43:06.533Z,890.58
2016-11-24T02:44:06.526Z,890.35
2016-11-24T02:45:06.519Z,889.7
2016-11-24T02:46:06.539Z,889.04
2016-11-24T02:47:06.523Z,888.95
2016-11-24T02:48:06.526Z,888.39
2016-11-24T02:49:06.546Z,888.28
2016-11-24T02:50:06.520Z,887.55
2016-11-24T02:51:06.526Z,887.42
2016-11-24T02:52:06.524Z,886.54
2016-11-24T02:53:06.533Z,885.87
2016-11-24T02:54:06.534Z,885.1
2016-11-24T02:55:06.543Z,884.54
2016-11-24T02:56:06.521Z,884.21
2016-11-24T02:57:06.531Z,883.84
2016-11-24T02:58:06.568Z,882.73
2016-11-24T02:59:06.539Z,881.89
2016-11-24T03:00:06.539Z,881.23
2016-11-24T03:01:06.532Z,881.14
2016-11-24T03:02:06.551Z,879.92
2016-11-24T03:03:06.540Z,879.8
2016-11-24T03:04:06.536Z,878.97
2016-11-24T03:05:06.537Z,878.61
2016-11-24T03:06:06.538Z,878.39
2016-11-24T03:07:06.530Z,877.42
2016-11-24T03:08:06.531Z,876.75
2016-11-24T03:09:06.544Z,876.42
2016-11-24T03:10:06.536Z,875.72
2016-11-24T03:11:06.566Z,875.56
2016-11-24T03:12:06.555Z,876.12
2016-11-24T03:13:06.542Z,876
2016-11-24T03:14:06.570Z,876.42
2016-11-24T03:15:06.540Z,876.42
2016-11-24T03:16:06.549Z,875.98
2016-11-24T03:17:06.549Z,874.87
2016-11-24T03:18:06.547Z,874.93
2016-11-24T03:19:06.553Z,874.03
2016-11-24T03:20:06.556Z,873.81
2016-11-24T03:21:06.558Z,873.36
2016-11-24T03:22:06.549Z,872.7
2016-11-24T03:23:06.551Z,872.02
2016-11-24T03:24:06.571Z,871.78
2016-11-24T03:25:06.571Z,870.64
2016-11-24T03:26:06.537Z,870.12
2016-11-24T03:27:06.554Z,868.95
2016-11-24T03:28:06.560Z,868.67
2016-11-24T03:29:06.565Z,867.69
2016-11-24T03:30:06.571Z,867.27
2016-11-24T03:31:06.576Z,867.31
2016-11-24T03:32:06.578Z,866.49
2016-11-24T03:33:06.566Z,866.02
2016-11-24T03:34:06.578Z,865.5
2016-11-24T03:35:06.578Z,865.55
2016-11-24T03:36:06.568Z,865.26
2016-11-24T03:37:06.575Z,865.12
2016-11-24T03:38:06.567Z,866.21
2016-11-24T03:39:06.565Z,866.1
2016-11-24T03:40:06.563Z,866.26
2016-11-24T03:41:06.560Z,866.29
2016-11-24T03:42:06.568Z,866.45
2016-11-24T03:43:06.578Z,866.87
2016-11-24T03:44:06.565Z,866.88
2016-11-24T03:45:06.566Z,867.18
2016-11-24T03:46:06.572Z,867.42
2016-11-24T03:47:06.585Z,868.34
2016-11-24T03:48:06.575Z,869.34
2016-11-24T03:49:06.566Z,870.17
2016-11-24T03:50:06.587Z,871.81
2016-11-24T03:51:06.578Z,873.1
2016-11-24T03:52:06.583Z,873.78
2016-11-24T03:53:06.571Z,875.5
2016-11-24T03:54:06.575Z,875.84
2016-11-24T03:55:06.581Z,876.71
2016-11-24T03:56:06.579Z,877.57
2016-11-24T03:57:06.583Z,878.28
2016-11-24T03:58:06.575Z,879.04
2016-11-24T03:59:06.582Z,879.88
2016-11-24T04:00:06.575Z,880.98
2016-11-24T04:01:06.850Z,881.43
2016-11-24T04:02:06.607Z,881.81
2016-11-24T04:03:06.589Z,882.09
2016-11-24T04:04:06.585Z,882.23
2016-11-24T04:05:06.608Z,882.52
2016-11-24T04:06:06.585Z,882.18
2016-11-24T04:07:06.595Z,881.77
2016-11-24T04:08:06.585Z,881.42
2016-11-24T04:09:06.586Z,881
2016-11-24T04:10:06.568Z,880.87
2016-11-24T04:11:06.582Z,880.75
2016-11-24T04:12:06.589Z,880.94
2016-11-24T04:13:06.597Z,879.99
2016-11-24T04:14:06.596Z,879.22
2016-11-24T04:15:06.626Z,878.95
2016-11-24T04:16:06.599Z,877.98
2016-11-24T04:17:06.608Z,877.34
2016-11-24T04:18:06.608Z,876.65
2016-11-24T04:19:06.602Z,875.67
2016-11-24T04:20:06.628Z,874.27
2016-11-24T04:21:06.597Z,873.6
2016-11-24T04:22:06.606Z,872.66
2016-11-24T04:23:06.595Z,871.85
2016-11-24T04:24:06.612Z,870.69
2016-11-24T04:25:06.604Z,869.73
2016-11-24T04:26:06.602Z,868.47
2016-11-24T04:27:06.615Z,867.38
2016-11-24T04:28:06.610Z,866.31
2016-11-24T04:29:06.617Z,865.08
2016-11-24T04:30:06.604Z,863.69
2016-11-24T04:31:06.605Z,862.55
2016-11-24T04:32:06.628Z,861.24
2016-11-24T04:33:06.732Z,860.68
2016-11-24T04:34:06.626Z,860.19
2016-11-24T04:35:06.598Z,859.2
2016-11-24T04:36:06.608Z,858.9
2016-11-24T04:37:06.624Z,858.33
2016-11-24T04:38:06.607Z,857.52
2016-11-24T04:39:06.607Z,856.64
2016-11-24T04:40:06.699Z,856.08
2016-11-24T04:41:06.607Z,855.66
2016-11-24T04:42:06.636Z,854.71
2016-11-24T04:43:06.610Z,854.28
2016-11-24T04:44:06.625Z,853.58
2016-11-24T04:45:06.606Z,852.93
2016-11-24T04:46:06.631Z,852.17
2016-11-24T04:47:06.623Z,852.32
2016-11-24T04:48:06.615Z,852.62
2016-11-24T04:49:06.632Z,852.7
2016-11-24T04:50:06.617Z,852.95
2016-11-24T04:51:06.618Z,853.13
2016-11-24T04:52:06.615Z,853.12
2016-11-24T04:53:06.638Z,852.36
2016-11-24T04:54:06.612Z,852.46
2016-11-24T04:55:06.617Z,851.4
2016-11-24T04:56:06.620Z,850.86
2016-11-24T04:57:06.636Z,850.16
2016-11-24T04:58:06.631Z,849.82
2016-11-24T04:59:06.628Z,849.44
2016-11-24T05:00:06.620Z,848.7
2016-11-24T05:01:06.623Z,849.15
2016-11-24T05:02:06.628Z,848.7
2016-11-24T05:03:06.630Z,848.12
2016-11-24T05:04:06.624Z,848.38
2016-11-24T05:05:06.626Z,847.98
2016-11-24T05:06:06.618Z,847.45
2016-11-24T05:07:09.337Z,847.42
2016-11-24T05:08:09.163Z,847.49
2016-11-24T05:09:08.666Z,848.45
2016-11-24T05:10:09.204Z,849.22
2016-11-24T05:11:09.663Z,849.36
2016-11-24T05:12:09.383Z,849.92
2016-11-24T05:13:09.026Z,850.63
2016-11-24T05:14:08.934Z,851.73
2016-11-24T05:15:09.401Z,851.43
2016-11-24T05:16:06.636Z,852.15
2016-11-24T05:17:06.651Z,852.42
2016-11-24T05:18:06.635Z,853.03
2016-11-24T05:19:06.636Z,853.41
2016-11-24T05:20:06.633Z,853.65
2016-11-24T05:21:06.652Z,853.47
2016-11-24T05:22:06.637Z,854.34
2016-11-24T05:23:06.637Z,854.48
2016-11-24T05:24:06.644Z,854.87
2016-11-24T05:25:06.651Z,854.35
2016-11-24T05:26:06.635Z,854.82
2016-11-24T05:27:06.647Z,855.24
2016-11-24T05:28:06.656Z,854.94
2016-11-24T05:29:06.638Z,854.84
2016-11-24T05:30:06.661Z,854.55
2016-11-24T05:31:06.642Z,854.59
2016-11-24T05:32:06.647Z,854.72
2016-11-24T05:33:06.634Z,854.7
2016-11-24T05:34:06.655Z,854.77
2016-11-24T05:35:06.653Z,854.46
2016-11-24T05:36:06.650Z,854.5
2016-11-24T05:37:06.651Z,854.21
2016-11-24T05:38:06.656Z,854.13
2016-11-24T05:39:06.645Z,854.21
2016-11-24T05:40:06.652Z,854.68
2016-11-24T05:41:06.666Z,854.96
2016-11-24T05:42:06.653Z,855.07
2016-11-24T05:43:06.646Z,854.69
2016-11-24T05:44:06.647Z,855.6
2016-11-24T05:45:06.813Z,855.58
2016-11-24T05:46:06.682Z,855.81
2016-11-24T05:47:06.659Z,855.98
2016-11-24T05:48:06.661Z,856.73
2016-11-24T05:49:06.672Z,857.35
2016-11-24T05:50:06.670Z,857.27
2016-11-24T05:51:06.663Z,857.81
2016-11-24T05:52:06.676Z,858.51
2016-11-24T05:53:06.672Z,858.96
2016-11-24T05:54:06.681Z,859.21
2016-11-24T05:55:06.672Z,859.62
2016-11-24T05:56:06.675Z,860.59
2016-11-24T05:57:06.669Z,860.9
2016-11-24T05:58:06.753Z,861.56
2016-11-24T05:59:06.684Z,862.69
2016-11-24T06:00:06.664Z,862.7
2016-11-24T06:01:06.664Z,863.51
2016-11-24T06:02:06.673Z,864.17
2016-11-24T06:03:06.688Z,864.91
2016-11-24T06:04:06.675Z,865.46
2016-11-24T06:05:06.685Z,865.96
2016-11-24T06:06:06.694Z,866.64
2016-11-24T06:07:06.698Z,867.82
2016-11-24T06:08:06.693Z,868.51
2016-11-24T06:09:06.698Z,868.31
2016-11-24T06:10:06.679Z,868.9
2016-11-24T06:11:06.682Z,869.08
2016-11-24T06:12:06.673Z,869.61
2016-11-24T06:13:06.694Z,870.26
2016-11-24T06:14:06.701Z,870.83
2016-11-24T06:15:06.693Z,870.65
2016-11-24T06:16:06.688Z,871.05
2016-11-24T06:17:06.678Z,871.53
2016-11-24T06:18:06.683Z,871.13
2016-11-24T06:19:06.746Z,871.55
2016-11-24T06:20:06.688Z,872.07
2016-11-24T06:21:06.696Z,872.28
2016-11-24T06:22:06.690Z,872.98
2016-11-24T06:23:06.698Z,873.27
2016-11-24T06:24:06.687Z,873.62
2016-11-24T06:25:06.725Z,874
2016-11-24T06:26:06.696Z,874.29
2016-11-24T06:27:06.692Z,874.16
2016-11-24T06:28:06.693Z,875.01
2016-11-24T06:29:06.705Z,875.44
2016-11-24T06:30:06.695Z,876.01
2016-11-24T06:31:06.731Z,876.15
2016-11-24T06:32:06.700Z,876.87
2016-11-24T06:33:06.691Z,877.19
2016-11-24T06:34:06.699Z,876.87
2016-11-24T06:35:06.691Z,877.38
2016-11-24T06:36:06.705Z,877.05
2016-11-24T06:37:06.727Z,877.38
2016-11-24T06:38:06.699Z,877.26
2016-11-24T06:39:06.717Z,877.25
2016-11-24T06:40:06.700Z,877
2016-11-24T06:41:06.698Z,877.64
2016-11-24T06:42:07.498Z,877.59
2016-11-24T06:43:06.698Z,878.12
2016-11-24T06:44:06.728Z,877.81
2016-11-24T06:45:06.702Z,878.45
2016-11-24T06:46:06.704Z,877.91
2016-11-24T06:47:06.698Z,878.14
2016-11-24T06:48:06.696Z,877.82
2016-11-24T06:49:06.727Z,877.44
2016-11-24T06:50:06.711Z,876.79
2016-11-24T06:51:06.718Z,877.81
2016-11-24T06:52:06.725Z,878.27
2016-11-24T06:53:06.741Z,878.14
2016-11-24T06:54:06.722Z,877.68
2016-11-24T06:55:06.713Z,878.13
2016-11-24T06:56:06.737Z,877.73
2016-11-24T06:57:06.727Z,878.19
2016-11-24T06:58:06.734Z,877.52
2016-11-24T06:59:06.740Z,877.76
2016-11-24T07:00:06.747Z,876.73
2016-11-24T07:01:06.727Z,876.84
2016-11-24T07:02:06.731Z,876.62
2016-11-24T07:03:06.737Z,875.61
2016-11-24T07:04:06.728Z,876.08
2016-11-24T07:05:06.747Z,875.17
2016-11-24T07:06:06.743Z,874.8
2016-11-24T07:07:06.731Z,874.09
2016-11-24T07:08:06.732Z,874.13
2016-11-24T07:09:06.738Z,874.03
2016-11-24T07:10:07.026Z,873.76
2016-11-24T07:11:06.725Z,873.75
2016-11-24T07:12:07.441Z,873.34
2016-11-24T07:13:06.736Z,873.43
2016-11-24T07:14:06.757Z,873.2
2016-11-24T07:15:06.734Z,872.77
2016-11-24T07:16:06.738Z,872.89
2016-11-24T07:17:06.731Z,873.03
2016-11-24T07:18:06.752Z,873.47
2016-11-24T07:19:06.754Z,873.34
2016-11-24T07:20:06.982Z,873.76
2016-11-24T07:21:06.722Z,874.15
2016-11-24T07:22:06.741Z,874.89
2016-11-24T07:23:06.761Z,875.13
2016-11-24T07:24:06.731Z,875.37
2016-11-24T07:25:06.735Z,875.72
2016-11-24T07:26:06.747Z,876.2
2016-11-24T07:27:06.763Z,877.1
2016-11-24T07:28:06.758Z,877.75
2016-11-24T07:29:06.723Z,878.42
2016-11-24T07:30:06.719Z,879.23
2016-11-24T07:31:06.738Z,878.58
2016-11-24T07:32:06.765Z,878.88
2016-11-24T07:33:06.729Z,879.24
2016-11-24T07:34:06.738Z,879.34
2016-11-24T07:35:06.736Z,879.63
2016-11-24T07:36:06.733Z,879.9
2016-11-24T07:37:06.749Z,880.47
2016-11-24T07:38:06.733Z,880.29
2016-11-24T07:39:06.723Z,881
2016-11-24T07:40:06.738Z,881.1
2016-11-24T07:41:06.740Z,881.97
2016-11-24T07:42:06.759Z,881.73
2016-11-24T07:43:06.746Z,881.53
2016-11-24T07:44:06.954Z,882.05
2016-11-24T07:45:06.748Z,881.76
2016-11-24T07:46:07.866Z,881.77
2016-11-24T07:47:06.750Z,881.51
2016-11-24T07:48:06.764Z,881.51
2016-11-24T07:49:06.755Z,880.74
2016-11-24T07:50:06.754Z,881.12
2016-11-24T07:51:06.750Z,880.38
2016-11-24T07:52:06.767Z,881.14
2016-11-24T07:53:06.744Z,880.93
2016-11-24T07:54:06.922Z,881.06
2016-11-24T07:55:06.753Z,880.16
2016-11-24T07:56:06.745Z,879.87
2016-11-24T07:57:06.770Z,879.97
2016-11-24T07:58:06.774Z,880.3
2016-11-24T07:59:06.765Z,880.56
2016-11-24T08:00:06.784Z,880.82
2016-11-24T08:01:06.761Z,881.18
2016-11-24T08:02:06.787Z,881.37
2016-11-24T08:03:06.772Z,881.86
2016-11-24T08:04:06.985Z,882.27
2016-11-24T08:05:06.772Z,882.4
2016-11-24T08:06:06.760Z,883.27
2016-11-24T08:07:06.807Z,883.28
2016-11-24T08:08:06.778Z,883.97
2016-11-24T08:09:06.769Z,882.99
2016-11-24T08:10:06.773Z,884.01
2016-11-24T08:11:06.768Z,884.97
2016-11-24T08:12:06.784Z,885.8
2016-11-24T08:13:06.765Z,886.1
2016-11-24T08:14:06.771Z,886.5
2016-11-24T08:15:06.791Z,887.66
2016-11-24T08:16:06.781Z,888.14
2016-11-24T08:17:06.791Z,888.8
2016-11-24T08:18:06.796Z,889.49
2016-11-24T08:19:06.776Z,889.62
2016-11-24T08:20:06.788Z,890.56
2016-11-24T08:21:06.775Z,891.08
2016-11-24T08:22:06.793Z,891.6
2016-11-24T08:23:06.787Z,891.99
2016-11-24T08:24:06.779Z,892.43
2016-11-24T08:25:06.794Z,892.98
2016-11-24T08:26:06.800Z,893.49
2016-11-24T08:27:06.821Z,893.08
2016-11-24T08:28:06.800Z,894.01
2016-11-24T08:29:06.805Z,895.23
2016-11-24T08:30:06.787Z,895.41
2016-11-24T08:31:06.796Z,896.2
2016-11-24T08:32:06.813Z,897
2016-11-24T08:33:06.809Z,897.58
2016-11-24T08:34:06.801Z,897.74
2016-11-24T08:35:06.802Z,898.3
2016-11-24T08:36:06.788Z,898.19
2016-11-24T08:37:06.823Z,898.79
2016-11-24T08:38:06.797Z,899.32
2016-11-24T08:39:06.802Z,899.49
2016-11-24T08:40:06.788Z,899.74
2016-11-24T08:41:06.803Z,900.25
2016-11-24T08:42:06.815Z,900.83
2016-11-24T08:43:06.788Z,900.13
2016-11-24T08:44:06.786Z,900.73
2016-11-24T08:45:06.797Z,901.83
2016-11-24T08:46:06.788Z,901.66
2016-11-24T08:47:06.816Z,901.44
2016-11-24T08:48:06.802Z,900.81
2016-11-24T08:49:06.808Z,900.96
2016-11-24T08:50:06.810Z,902.14
2016-11-24T08:51:06.799Z,902.52
2016-11-24T08:52:06.825Z,902.93
2016-11-24T08:53:06.800Z,903.43
2016-11-24T08:54:06.807Z,904.01
2016-11-24T08:55:06.808Z,904.3
2016-11-24T08:56:06.805Z,904.79
2016-11-24T08:57:06.839Z,904.59
2016-11-24T08:58:06.810Z,904.62
2016-11-24T08:59:06.801Z,904.63
2016-11-24T09:00:06.818Z,905.89
2016-11-24T09:01:06.802Z,906.62
2016-11-24T09:02:06.833Z,907.37
2016-11-24T09:03:06.814Z,908.01
2016-11-24T09:04:06.824Z,909.01
2016-11-24T09:05:06.813Z,910.42
2016-11-24T09:06:06.833Z,911.31
2016-11-24T09:07:06.846Z,912.32
2016-11-24T09:08:06.808Z,912.9
2016-11-24T09:09:06.829Z,913.42
2016-11-24T09:10:06.821Z,913.65
2016-11-24T09:11:06.811Z,913.37
2016-11-24T09:12:06.833Z,913.72
2016-11-24T09:13:06.826Z,913.68
2016-11-24T09:14:06.818Z,914.27
2016-11-24T09:15:06.807Z,914.56
2016-11-24T09:16:06.818Z,915.5
2016-11-24T09:17:06.835Z,915.59
2016-11-24T09:18:06.814Z,915.31
2016-11-24T09:19:06.817Z,916.15
2016-11-24T09:20:06.834Z,916.39
2016-11-24T09:21:06.864Z,916.41
2016-11-24T09:22:06.854Z,917.93
2016-11-24T09:23:06.841Z,919.42
2016-11-24T09:24:06.826Z,921.16
2016-11-24T09:25:06.830Z,922.53
2016-11-24T09:26:06.839Z,923.98
2016-11-24T09:27:06.855Z,925.22
2016-11-24T09:28:06.831Z,925.81
2016-11-24T09:29:06.869Z,926.67
2016-11-24T09:30:06.852Z,926.7
2016-11-24T09:31:06.821Z,928.2
2016-11-24T09:32:06.864Z,927.05
2016-11-24T09:33:06.832Z,927.31
2016-11-24T09:34:06.840Z,928.1
2016-11-24T09:35:06.841Z,928.63
2016-11-24T09:36:06.840Z,929.83
2016-11-24T09:37:07.783Z,931.47
2016-11-24T09:38:06.844Z,932.42
2016-11-24T09:39:06.840Z,933.43
2016-11-24T09:40:06.831Z,933.25
2016-11-24T09:41:06.852Z,934.02
2016-11-24T09:42:06.856Z,935.3
2016-11-24T09:43:06.847Z,936.03
2016-11-24T09:44:06.853Z,936.28
2016-11-24T09:45:06.838Z,936.42
2016-11-24T09:46:06.839Z,936.32
2016-11-24T09:47:06.853Z,935.95
2016-11-24T09:48:06.842Z,934.91
2016-11-24T09:49:06.851Z,935.08
2016-11-24T09:50:06.840Z,935.07
2016-11-24T09:51:06.863Z,934.95
2016-11-24T09:52:06.870Z,934.85
2016-11-24T09:53:06.837Z,933.85
2016-11-24T09:54:06.862Z,935.14
2016-11-24T09:55:06.856Z,935.3
2016-11-24T09:56:06.853Z,936.42
2016-11-24T09:57:06.859Z,937.86
2016-11-24T09:58:06.854Z,936.62
2016-11-24T09:59:06.845Z,936.02
2016-11-24T10:00:06.857Z,935.27
2016-11-24T10:01:06.851Z,934.8
2016-11-24T10:02:06.887Z,934.99
2016-11-24T10:03:07.529Z,936.53
2016-11-24T10:04:06.860Z,937.93
2016-11-24T10:05:06.850Z,939.21
2016-11-24T10:06:06.866Z,939.07
2016-11-24T10:07:06.888Z,939.06
2016-11-24T10:08:06.853Z,939.45
2016-11-24T10:09:06.849Z,937.87
2016-11-24T10:10:06.856Z,935.56
2016-11-24T10:11:06.879Z,934.67
2016-11-24T10:12:06.875Z,934.23
2016-11-24T10:13:06.861Z,933.85
2016-11-24T10:14:06.856Z,933.1
2016-11-24T10:15:06.864Z,932.14
2016-11-24T10:16:06.882Z,932.44
2016-11-24T10:17:06.892Z,933.15
2016-11-24T10:18:06.867Z,932.43
2016-11-24T10:19:06.857Z,933.24
2016-11-24T10:20:06.864Z,933.46
2016-11-24T10:21:06.878Z,932.43
2016-11-24T10:22:06.907Z,932.63
2016-11-24T10:23:06.899Z,933.66
2016-11-24T10:24:06.850Z,935.17
2016-11-24T10:25:06.859Z,937.74
2016-11-24T10:26:06.873Z,938.84
2016-11-24T10:27:06.909Z,939.53
2016-11-24T10:28:06.872Z,940.8
2016-11-24T10:29:06.873Z,941.21
2016-11-24T10:30:06.878Z,942.24
2016-11-24T10:31:06.884Z,943.18
2016-11-24T10:32:06.927Z,943.11
2016-11-24T10:33:06.878Z,942.82
2016-11-24T10:34:06.894Z,943.02
2016-11-24T10:35:06.881Z,943.02
2016-11-24T10:36:06.892Z,942.93
2016-11-24T10:37:06.944Z,942.76
2016-11-24T10:38:06.876Z,943.97
2016-11-24T10:39:06.885Z,944.71
2016-11-24T10:40:06.882Z,944.65
2016-11-24T10:41:06.879Z,944.84
2016-11-24T10:42:06.900Z,944.28
2016-11-24T10:43:06.868Z,945
2016-11-24T10:44:06.891Z,945.48
2016-11-24T10:45:06.876Z,947.14
2016-11-24T10:46:06.880Z,947.84
2016-11-24T10:47:06.932Z,948.71
2016-11-24T10:48:06.893Z,949.26
2016-11-24T10:49:06.887Z,949.86
2016-11-24T10:50:06.888Z,950.3
2016-11-24T10:51:06.887Z,949.9
2016-11-24T10:52:06.929Z,950.05
2016-11-24T10:53:06.892Z,949.97
2016-11-24T10:54:06.921Z,952.18
2016-11-24T10:55:06.895Z,952.67
2016-11-24T10:56:06.898Z,954.26
2016-11-24T10:57:06.911Z,953.93
2016-11-24T10:58:06.896Z,955.08
2016-11-24T10:59:06.918Z,956.11
2016-11-24T11:00:06.889Z,957.05
2016-11-24T11:01:06.890Z,957.28
2016-11-24T11:02:06.915Z,959.23
2016-11-24T11:03:06.905Z,960.59
2016-11-24T11:04:06.922Z,961.48
2016-11-24T11:05:06.899Z,961.95
2016-11-24T11:06:06.911Z,963.01
2016-11-24T11:07:06.919Z,963.96
2016-11-24T11:08:06.908Z,964.09
2016-11-24T11:09:06.915Z,964.28
2016-11-24T11:10:06.927Z,963.53
2016-11-24T11:11:06.946Z,962.35
2016-11-24T11:12:06.994Z,961.64
2016-11-24T11:13:06.897Z,960.89
2016-11-24T11:14:06.902Z,960.73
2016-11-24T11:15:06.892Z,960.58
2016-11-24T11:16:06.898Z,961.47
2016-11-24T11:17:06.914Z,961.69
2016-11-24T11:18:06.904Z,962.09
2016-11-24T11:19:06.905Z,962.92
2016-11-24T11:20:06.915Z,963.4
2016-11-24T11:21:06.920Z,964.73
2016-11-24T11:22:06.918Z,966.64
2016-11-24T11:23:06.921Z,968.18
2016-11-24T11:24:06.914Z,969.26
2016-11-24T11:25:06.931Z,969.31
2016-11-24T11:26:06.913Z,969.7
2016-11-24T11:27:07.734Z,970.91
2016-11-24T11:28:06.921Z,972.82
2016-11-24T11:29:06.907Z,974.41
2016-11-24T11:30:06.916Z,976.95
2016-11-24T11:31:06.914Z,979.65
2016-11-24T11:32:06.940Z,983.11
2016-11-24T11:33:06.923Z,985.51
2016-11-24T11:34:06.910Z,988.48
2016-11-24T11:35:06.910Z,990.08
2016-11-24T11:36:06.924Z,991.5
2016-11-24T11:37:06.923Z,992.29
2016-11-24T11:38:06.920Z,994.74
2016-11-24T11:39:06.927Z,996.48
2016-11-24T11:40:06.925Z,997.23
2016-11-24T11:41:06.944Z,997.85
2016-11-24T11:42:06.936Z,998.71
2016-11-24T11:43:06.926Z,998.12
2016-11-24T11:44:06.931Z,999.75
2016-11-24T11:45:06.955Z,1000.72
2016-11-24T11:46:06.930Z,1001.1
2016-11-24T11:47:06.924Z,1000.66
2016-11-24T11:48:06.931Z,1000.48
2016-11-24T11:49:06.948Z,1000.02
2016-11-24T11:50:07.709Z,999.33
2016-11-24T11:51:06.953Z,999.28
2016-11-24T11:52:06.952Z,999.18
2016-11-24T11:53:06.933Z,999.31
2016-11-24T11:54:06.935Z,998.38
2016-11-24T11:55:06.927Z,997.78
2016-11-24T11:56:06.930Z,997.5
2016-11-24T11:57:06.932Z,997.11
2016-11-24T11:58:06.943Z,996.47
2016-11-24T11:59:06.932Z,996.05
2016-11-24T12:00:06.943Z,995.81
2016-11-24T12:01:06.957Z,995.5
2016-11-24T12:02:06.953Z,994.18
2016-11-24T12:03:06.935Z,995
2016-11-24T12:04:06.948Z,996.33
2016-11-24T12:05:06.953Z,996.79
2016-11-24T12:06:06.948Z,996.1
2016-11-24T12:07:06.970Z,994.69
2016-11-24T12:08:06.946Z,993.62
2016-11-24T12:09:06.962Z,991.92
2016-11-24T12:10:06.969Z,990.67
2016-11-24T12:11:06.964Z,990.27
2016-11-24T12:12:06.943Z,989.58
2016-11-24T12:13:06.947Z,989.61
2016-11-24T12:14:06.971Z,989.24
2016-11-24T12:15:06.958Z,989.18
2016-11-24T12:16:06.957Z,989.1
2016-11-24T12:17:06.955Z,989.85
2016-11-24T12:18:06.956Z,991.07
2016-11-24T12:19:06.950Z,992
2016-11-24T12:20:06.955Z,991.84
2016-11-24T12:21:06.948Z,990.87
2016-11-24T12:22:06.955Z,988.93
2016-11-24T12:23:06.947Z,988.4
2016-11-24T12:24:06.960Z,989.5
2016-11-24T12:25:07.003Z,989.49
2016-11-24T12:26:06.955Z,989.44
2016-11-24T12:27:06.960Z,989.65
2016-11-24T12:28:06.978Z,989.91
2016-11-24T12:29:06.966Z,990.33
2016-11-24T12:30:07.022Z,990.39
2016-11-24T12:31:06.960Z,989.64